TimeMDT,TemperatureF,Dew PointF,Humidity,Sea Level PressureIn,VisibilityMPH,Wind Direction,Wind SpeedMPH,Gust SpeedMPH,PrecipitationIn,Events,Conditions,WindDirDegrees,DateUTC
12:53 AM,26.1,25.0,96,30.12,10.0,SSE,8.1,-,N/A,,Clear,150,2014-04-04 06:53:00
1:53 AM,27.0,25.0,92,30.11,10.0,SSE,10.4,-,N/A,,Clear,160,2014-04-04 07:53:00
2:53 AM,26.1,24.1,92,30.09,10.0,SSE,9.2,-,N/A,,Clear,150,2014-04-04 08:53:00
3:53 AM,25.0,23.0,92,30.07,10.0,SE,8.1,-,N/A,,Clear,140,2014-04-04 09:53:00
4:53 AM,26.1,24.1,92,30.05,10.0,ESE,9.2,-,N/A,,Clear,120,2014-04-04 10:53:00
5:53 AM,26.1,24.1,92,30.03,10.0,SE,10.4,-,N/A,,Clear,140,2014-04-04 11:53:00
6:53 AM,27.0,25.0,92,30.02,10.0,SE,8.1,-,N/A,,Clear,140,2014-04-04 12:53:00
7:53 AM,28.0,25.0,88,30.00,10.0,SSE,8.1,-,N/A,,Clear,150,2014-04-04 13:53:00
8:53 AM,30.9,27.0,85,29.99,10.0,SSE,11.5,-,N/A,,Clear,160,2014-04-04 14:53:00
9:53 AM,34.0,28.9,82,29.98,10.0,SSE,12.7,-,N/A,,Clear,160,2014-04-04 15:53:00
10:53 AM,37.9,30.0,73,29.96,10.0,SSE,10.4,-,N/A,,Clear,160,2014-04-04 16:53:00
11:53 AM,43.0,30.0,60,29.93,10.0,South,10.4,-,N/A,,Clear,170,2014-04-04 17:53:00
12:53 PM,46.9,30.0,52,29.90,10.0,South,11.5,-,N/A,,Clear,190,2014-04-04 18:53:00
1:53 PM,50.0,30.9,48,29.86,10.0,South,13.8,-,N/A,,Clear,190,2014-04-04 19:53:00
2:53 PM,53.1,30.0,41,29.84,10.0,SSW,16.1,-,N/A,,Clear,210,2014-04-04 20:53:00
3:53 PM,55.0,28.0,35,29.82,10.0,SW,12.7,-,N/A,,Clear,220,2014-04-04 21:53:00
4:53 PM,55.9,28.0,34,29.80,10.0,SW,12.7,-,N/A,,Clear,230,2014-04-04 22:53:00
5:53 PM,55.9,27.0,33,29.79,10.0,SW,9.2,-,N/A,,Clear,220,2014-04-04 23:53:00
6:53 PM,54.0,28.9,38,29.78,10.0,SSW,6.9,-,N/A,,Clear,210,2014-04-05 00:53:00
7:53 PM,44.1,28.9,55,29.80,10.0,SW,9.2,-,N/A,,Clear,220,2014-04-05 01:53:00
8:53 PM,43.0,36.0,76,29.81,10.0,SSE,10.4,-,N/A,,Clear,150,2014-04-05 02:53:00
9:53 PM,39.9,35.1,83,29.82,10.0,SSE,10.4,-,N/A,,Clear,150,2014-04-05 03:53:00
10:53 PM,37.9,33.1,83,29.81,10.0,SSE,11.5,-,N/A,,Clear,160,2014-04-05 04:53:00
11:53 PM,37.0,32.0,82,29.80,10.0,SSE,11.5,-,N/A,,Clear,160,2014-04-05 05:53:00